sensor_id;sensor_type;location;lat;lon;timestamp;temperature;humidity
16958;DHT22;8595;52.542;11.974;2022-08-19T00:00:46;23.80;99.90
16958;DHT22;8595;52.542;11.974;2022-08-19T00:03:12;23.80;99.90
16958;DHT22;8595;52.542;11.974;2022-08-19T00:05:39;23.80;99.90
16958;DHT22;8595;52.542;11.974;2022-08-19T00:08:09;23.80;99.90
16958;DHT22;8595;52.542;11.974;2022-08-19T00:10:35;23.70;99.90
16958;DHT22;8595;52.542;11.974;2022-08-19T00:13:02;23.60;99.90
16958;DHT22;8595;52.542;11.974;2022-08-19T00:15:29;23.60;99.90
16958;DHT22;8595;52.542;11.974;2022-08-19T00:17:56;23.40;99.90
16958;DHT22;8595;52.542;11.974;2022-08-19T00:20:23;23.30;99.90
16958;DHT22;8595;52.542;11.974;2022-08-19T00:22:49;23.20;99.90
16958;DHT22;8595;52.542;11.974;2022-08-19T00:25:18;23.20;99.90
16958;DHT22;8595;52.542;11.974;2022-08-19T00:27:45;23.30;99.90
16958;DHT22;8595;52.542;11.974;2022-08-19T00:30:13;23.30;99.90
16958;DHT22;8595;52.542;11.974;2022-08-19T00:32:40;23.10;99.90
16958;DHT22;8595;52.542;11.974;2022-08-19T00:35:07;23.00;99.90
16958;DHT22;8595;52.542;11.974;2022-08-19T00:37:35;22.90;99.90
16958;DHT22;8595;52.542;11.974;2022-08-19T00:40:04;22.80;99.90
16958;DHT22;8595;52.542;11.974;2022-08-19T00:42:32;22.90;99.90
16958;DHT22;8595;52.542;11.974;2022-08-19T00:44:59;22.80;99.90
16958;DHT22;8595;52.542;11.974;2022-08-19T00:47:26;22.80;99.90
16958;DHT22;8595;52.542;11.974;2022-08-19T00:49:56;22.70;99.90
16958;DHT22;8595;52.542;11.974;2022-08-19T00:52:26;22.60;99.90
16958;DHT22;8595;52.542;11.974;2022-08-19T00:54:55;22.50;99.90
16958;DHT22;8595;52.542;11.974;2022-08-19T00:57:26;22.50;99.90
16958;DHT22;8595;52.542;11.974;2022-08-19T00:59:56;22.40;99.90
16958;DHT22;8595;52.542;11.974;2022-08-19T01:02:23;22.30;99.90
16958;DHT22;8595;52.542;11.974;2022-08-19T01:04:50;22.20;99.90
16958;DHT22;8595;52.542;11.974;2022-08-19T01:07:17;22.10;99.90
16958;DHT22;8595;52.542;11.974;2022-08-19T01:09:44;22.00;99.90
16958;DHT22;8595;52.542;11.974;2022-08-19T01:12:11;22.00;99.90
16958;DHT22;8595;52.542;11.974;2022-08-19T01:14:39;22.00;99.90
16958;DHT22;8595;52.542;11.974;2022-08-19T01:17:09;22.00;99.90
16958;DHT22;8595;52.542;11.974;2022-08-19T01:19:38;21.90;99.90
16958;DHT22;8595;52.542;11.974;2022-08-19T01:22:10;21.80;99.90
16958;DHT22;8595;52.542;11.974;2022-08-19T01:24:40;21.80;99.90
16958;DHT22;8595;52.542;11.974;2022-08-19T01:27:07;21.80;99.90
16958;DHT22;8595;52.542;11.974;2022-08-19T01:29:37;21.80;99.90
16958;DHT22;8595;52.542;11.974;2022-08-19T01:32:05;22.00;99.90
16958;DHT22;8595;52.542;11.974;2022-08-19T01:34:32;22.10;99.90
16958;DHT22;8595;52.542;11.974;2022-08-19T01:37:00;22.00;99.90
16958;DHT22;8595;52.542;11.974;2022-08-19T01:39:33;22.00;99.90
16958;DHT22;8595;52.542;11.974;2022-08-19T01:42:02;21.90;99.90
16958;DHT22;8595;52.542;11.974;2022-08-19T01:44:30;21.90;99.90
16958;DHT22;8595;52.542;11.974;2022-08-19T01:46:57;21.90;99.90
16958;DHT22;8595;52.542;11.974;2022-08-19T01:49:25;21.90;99.90
16958;DHT22;8595;52.542;11.974;2022-08-19T01:51:52;21.90;99.90
16958;DHT22;8595;52.542;11.974;2022-08-19T01:54:22;22.00;99.90
16958;DHT22;8595;52.542;11.974;2022-08-19T01:56:49;22.10;99.90
16958;DHT22;8595;52.542;11.974;2022-08-19T01:59:20;22.20;99.90
16958;DHT22;8595;52.542;11.974;2022-08-19T02:01:47;22.30;99.90
16958;DHT22;8595;52.542;11.974;2022-08-19T02:04:14;22.30;99.90
16958;DHT22;8595;52.542;11.974;2022-08-19T02:06:41;22.30;99.90
16958;DHT22;8595;52.542;11.974;2022-08-19T02:09:09;22.20;99.90
16958;DHT22;8595;52.542;11.974;2022-08-19T02:11:37;22.20;99.90
16958;DHT22;8595;52.542;11.974;2022-08-19T02:14:06;22.00;99.90
16958;DHT22;8595;52.542;11.974;2022-08-19T02:16:35;22.00;99.90
16958;DHT22;8595;52.542;11.974;2022-08-19T02:19:03;22.00;99.90
16958;DHT22;8595;52.542;11.974;2022-08-19T02:21:30;21.90;99.90
16958;DHT22;8595;52.542;11.974;2022-08-19T02:23:57;21.80;99.90
16958;DHT22;8595;52.542;11.974;2022-08-19T02:26:24;21.80;99.90
16958;DHT22;8595;52.542;11.974;2022-08-19T02:28:52;21.70;99.90
16958;DHT22;8595;52.542;11.974;2022-08-19T02:31:21;21.80;99.90
16958;DHT22;8595;52.542;11.974;2022-08-19T02:33:49;21.80;99.90
16958;DHT22;8595;52.542;11.974;2022-08-19T02:36:17;21.80;99.90
16958;DHT22;8595;52.542;11.974;2022-08-19T02:38:44;21.80;99.90
16958;DHT22;8595;52.542;11.974;2022-08-19T02:41:12;21.90;99.90
16958;DHT22;8595;52.542;11.974;2022-08-19T02:43:40;21.80;99.90
16958;DHT22;8595;52.542;11.974;2022-08-19T02:46:16;21.80;99.90
16958;DHT22;8595;52.542;11.974;2022-08-19T02:48:48;21.80;99.90
16958;DHT22;8595;52.542;11.974;2022-08-19T02:51:17;21.80;99.90
16958;DHT22;8595;52.542;11.974;2022-08-19T02:53:44;21.70;99.90
16958;DHT22;8595;52.542;11.974;2022-08-19T02:56:11;21.70;99.90
16958;DHT22;8595;52.542;11.974;2022-08-19T02:58:37;21.70;99.90
16958;DHT22;8595;52.542;11.974;2022-08-19T03:01:04;21.70;99.90
16958;DHT22;8595;52.542;11.974;2022-08-19T03:03:31;21.60;99.90
16958;DHT22;8595;52.542;11.974;2022-08-19T03:06:10;21.40;99.90
16958;DHT22;8595;52.542;11.974;2022-08-19T03:08:40;21.40;99.90
16958;DHT22;8595;52.542;11.974;2022-08-19T03:11:13;21.30;99.90
16958;DHT22;8595;52.542;11.974;2022-08-19T03:13:39;21.20;99.90
16958;DHT22;8595;52.542;11.974;2022-08-19T03:16:08;21.10;99.90
16958;DHT22;8595;52.542;11.974;2022-08-19T03:18:35;21.10;99.90
16958;DHT22;8595;52.542;11.974;2022-08-19T03:21:02;21.10;99.90
16958;DHT22;8595;52.542;11.974;2022-08-19T03:23:30;21.00;99.90
16958;DHT22;8595;52.542;11.974;2022-08-19T03:25:56;21.00;99.90
16958;DHT22;8595;52.542;11.974;2022-08-19T03:28:23;21.00;99.90
16958;DHT22;8595;52.542;11.974;2022-08-19T03:30:58;20.90;99.90
16958;DHT22;8595;52.542;11.974;2022-08-19T03:33:25;20.90;99.90
16958;DHT22;8595;52.542;11.974;2022-08-19T03:36:04;20.80;99.90
16958;DHT22;8595;52.542;11.974;2022-08-19T03:38:34;20.80;99.90
16958;DHT22;8595;52.542;11.974;2022-08-19T03:41:05;20.80;99.90
16958;DHT22;8595;52.542;11.974;2022-08-19T03:43:34;20.70;99.90
16958;DHT22;8595;52.542;11.974;2022-08-19T03:46:04;20.70;99.90
16958;DHT22;8595;52.542;11.974;2022-08-19T03:48:32;20.80;99.90
16958;DHT22;8595;52.542;11.974;2022-08-19T03:51:00;20.80;99.90
16958;DHT22;8595;52.542;11.974;2022-08-19T03:53:28;20.80;99.90
16958;DHT22;8595;52.542;11.974;2022-08-19T03:55:57;21.00;99.90
16958;DHT22;8595;52.542;11.974;2022-08-19T03:58:26;21.10;99.90
16958;DHT22;8595;52.542;11.974;2022-08-19T04:00:53;21.10;99.90
16958;DHT22;8595;52.542;11.974;2022-08-19T04:03:19;21.00;99.90
16958;DHT22;8595;52.542;11.974;2022-08-19T04:05:46;21.00;99.90
16958;DHT22;8595;52.542;11.974;2022-08-19T04:08:15;21.00;99.90
16958;DHT22;8595;52.542;11.974;2022-08-19T04:10:44;21.00;99.90
16958;DHT22;8595;52.542;11.974;2022-08-19T04:13:12;21.00;99.90
16958;DHT22;8595;52.542;11.974;2022-08-19T04:15:39;20.90;99.90
16958;DHT22;8595;52.542;11.974;2022-08-19T04:18:07;20.90;99.90
16958;DHT22;8595;52.542;11.974;2022-08-19T04:20:42;20.80;99.90
16958;DHT22;8595;52.542;11.974;2022-08-19T04:23:09;21.00;99.90
16958;DHT22;8595;52.542;11.974;2022-08-19T04:25:38;21.10;99.90
16958;DHT22;8595;52.542;11.974;2022-08-19T04:28:05;21.10;99.90
16958;DHT22;8595;52.542;11.974;2022-08-19T04:30:39;21.10;99.90
16958;DHT22;8595;52.542;11.974;2022-08-19T04:33:05;21.10;99.90
16958;DHT22;8595;52.542;11.974;2022-08-19T04:35:35;21.10;99.90
16958;DHT22;8595;52.542;11.974;2022-08-19T04:38:02;21.00;99.90
16958;DHT22;8595;52.542;11.974;2022-08-19T04:40:29;21.00;99.90
16958;DHT22;8595;52.542;11.974;2022-08-19T04:43:14;20.90;99.90
16958;DHT22;8595;52.542;11.974;2022-08-19T04:45:42;20.70;99.90
16958;DHT22;8595;52.542;11.974;2022-08-19T04:48:09;20.60;99.90
16958;DHT22;8595;52.542;11.974;2022-08-19T04:50:40;20.50;99.90
16958;DHT22;8595;52.542;11.974;2022-08-19T04:53:07;20.50;99.90
16958;DHT22;8595;52.542;11.974;2022-08-19T04:55:34;20.50;99.90
16958;DHT22;8595;52.542;11.974;2022-08-19T04:58:01;20.40;99.90
16958;DHT22;8595;52.542;11.974;2022-08-19T05:00:28;20.40;99.90
16958;DHT22;8595;52.542;11.974;2022-08-19T05:02:56;20.40;99.90
16958;DHT22;8595;52.542;11.974;2022-08-19T05:05:23;20.40;99.90
16958;DHT22;8595;52.542;11.974;2022-08-19T05:07:49;20.30;99.90
16958;DHT22;8595;52.542;11.974;2022-08-19T05:10:16;20.30;99.90
16958;DHT22;8595;52.542;11.974;2022-08-19T05:12:43;20.40;99.90
16958;DHT22;8595;52.542;11.974;2022-08-19T05:15:10;20.40;99.90
16958;DHT22;8595;52.542;11.974;2022-08-19T05:17:37;20.50;99.90
16958;DHT22;8595;52.542;11.974;2022-08-19T05:20:25;20.60;99.90
16958;DHT22;8595;52.542;11.974;2022-08-19T05:23:10;20.80;99.90
16958;DHT22;8595;52.542;11.974;2022-08-19T05:25:40;20.90;99.90
16958;DHT22;8595;52.542;11.974;2022-08-19T05:28:06;20.90;99.90
16958;DHT22;8595;52.542;11.974;2022-08-19T05:30:33;21.00;99.90
16958;DHT22;8595;52.542;11.974;2022-08-19T05:32:59;20.90;99.90
16958;DHT22;8595;52.542;11.974;2022-08-19T05:35:28;20.90;99.90
16958;DHT22;8595;52.542;11.974;2022-08-19T05:37:54;20.80;99.90
16958;DHT22;8595;52.542;11.974;2022-08-19T05:40:21;20.70;99.90
16958;DHT22;8595;52.542;11.974;2022-08-19T05:42:48;20.70;99.90
16958;DHT22;8595;52.542;11.974;2022-08-19T05:45:16;20.70;99.90
16958;DHT22;8595;52.542;11.974;2022-08-19T05:47:42;20.70;99.90
16958;DHT22;8595;52.542;11.974;2022-08-19T05:50:10;20.80;99.90
16958;DHT22;8595;52.542;11.974;2022-08-19T05:52:38;20.70;99.90
16958;DHT22;8595;52.542;11.974;2022-08-19T05:55:06;20.70;99.90
16958;DHT22;8595;52.542;11.974;2022-08-19T05:57:33;20.70;99.90
16958;DHT22;8595;52.542;11.974;2022-08-19T05:59:59;20.90;99.90
16958;DHT22;8595;52.542;11.974;2022-08-19T06:02:28;21.00;99.90
16958;DHT22;8595;52.542;11.974;2022-08-19T06:04:55;20.90;99.90
16958;DHT22;8595;52.542;11.974;2022-08-19T06:07:22;20.90;99.90
16958;DHT22;8595;52.542;11.974;2022-08-19T06:09:50;20.80;99.90
16958;DHT22;8595;52.542;11.974;2022-08-19T06:12:17;20.90;99.90
16958;DHT22;8595;52.542;11.974;2022-08-19T06:14:43;20.90;99.90
16958;DHT22;8595;52.542;11.974;2022-08-19T06:17:10;21.10;99.90
16958;DHT22;8595;52.542;11.974;2022-08-19T06:19:38;21.10;99.90
16958;DHT22;8595;52.542;11.974;2022-08-19T06:22:06;21.10;99.90
16958;DHT22;8595;52.542;11.974;2022-08-19T06:24:33;21.20;99.90
16958;DHT22;8595;52.542;11.974;2022-08-19T06:27:02;21.10;99.90
16958;DHT22;8595;52.542;11.974;2022-08-19T06:29:31;21.10;99.90
16958;DHT22;8595;52.542;11.974;2022-08-19T06:31:59;21.10;99.90
16958;DHT22;8595;52.542;11.974;2022-08-19T06:34:27;21.10;99.90
16958;DHT22;8595;52.542;11.974;2022-08-19T06:36:55;21.20;99.90
16958;DHT22;8595;52.542;11.974;2022-08-19T06:39:25;21.10;99.90
16958;DHT22;8595;52.542;11.974;2022-08-19T06:41:55;21.00;99.90
16958;DHT22;8595;52.542;11.974;2022-08-19T06:44:26;21.20;99.90
16958;DHT22;8595;52.542;11.974;2022-08-19T06:46:53;21.20;99.90
16958;DHT22;8595;52.542;11.974;2022-08-19T06:49:21;21.20;99.90
16958;DHT22;8595;52.542;11.974;2022-08-19T06:51:49;21.30;99.90
16958;DHT22;8595;52.542;11.974;2022-08-19T06:54:17;21.40;99.90
16958;DHT22;8595;52.542;11.974;2022-08-19T06:56:44;21.30;99.90
16958;DHT22;8595;52.542;11.974;2022-08-19T06:59:13;21.40;99.90
16958;DHT22;8595;52.542;11.974;2022-08-19T07:01:44;21.50;99.90
16958;DHT22;8595;52.542;11.974;2022-08-19T07:04:13;21.60;99.90
16958;DHT22;8595;52.542;11.974;2022-08-19T07:06:40;21.70;99.90
16958;DHT22;8595;52.542;11.974;2022-08-19T07:09:08;21.70;99.90
16958;DHT22;8595;52.542;11.974;2022-08-19T07:11:35;21.80;99.90
16958;DHT22;8595;52.542;11.974;2022-08-19T07:14:02;21.80;99.90
16958;DHT22;8595;52.542;11.974;2022-08-19T07:16:29;21.70;99.90
16958;DHT22;8595;52.542;11.974;2022-08-19T07:18:58;21.60;99.90
16958;DHT22;8595;52.542;11.974;2022-08-19T07:21:27;21.70;99.90
16958;DHT22;8595;52.542;11.974;2022-08-19T07:23:55;21.60;99.90
16958;DHT22;8595;52.542;11.974;2022-08-19T07:26:27;21.50;99.90
16958;DHT22;8595;52.542;11.974;2022-08-19T07:28:55;21.50;99.90
16958;DHT22;8595;52.542;11.974;2022-08-19T07:31:25;21.50;99.90
16958;DHT22;8595;52.542;11.974;2022-08-19T07:33:54;21.60;99.90
16958;DHT22;8595;52.542;11.974;2022-08-19T07:36:27;21.60;99.90
16958;DHT22;8595;52.542;11.974;2022-08-19T07:38:58;21.70;99.90
16958;DHT22;8595;52.542;11.974;2022-08-19T07:41:27;21.70;99.90
16958;DHT22;8595;52.542;11.974;2022-08-19T07:43:57;21.70;99.90
16958;DHT22;8595;52.542;11.974;2022-08-19T07:46:24;21.60;99.90
16958;DHT22;8595;52.542;11.974;2022-08-19T07:48:53;21.60;99.90
16958;DHT22;8595;52.542;11.974;2022-08-19T07:51:22;21.70;99.90
16958;DHT22;8595;52.542;11.974;2022-08-19T07:53:49;21.80;99.90
16958;DHT22;8595;52.542;11.974;2022-08-19T07:56:17;21.80;99.90
16958;DHT22;8595;52.542;11.974;2022-08-19T07:58:46;21.80;99.90
16958;DHT22;8595;52.542;11.974;2022-08-19T08:01:15;21.80;99.90
16958;DHT22;8595;52.542;11.974;2022-08-19T08:03:42;21.70;99.90
16958;DHT22;8595;52.542;11.974;2022-08-19T08:06:25;21.70;99.90
16958;DHT22;8595;52.542;11.974;2022-08-19T08:09:11;21.70;99.90
16958;DHT22;8595;52.542;11.974;2022-08-19T08:11:38;21.60;99.90
16958;DHT22;8595;52.542;11.974;2022-08-19T08:14:05;21.60;99.90
16958;DHT22;8595;52.542;11.974;2022-08-19T08:16:33;21.70;99.90
16958;DHT22;8595;52.542;11.974;2022-08-19T08:19:00;21.70;99.90
16958;DHT22;8595;52.542;11.974;2022-08-19T08:21:28;21.70;99.90
16958;DHT22;8595;52.542;11.974;2022-08-19T08:23:55;21.60;99.90
16958;DHT22;8595;52.542;11.974;2022-08-19T08:26:22;21.70;99.90
16958;DHT22;8595;52.542;11.974;2022-08-19T08:28:49;21.80;99.90
16958;DHT22;8595;52.542;11.974;2022-08-19T08:31:16;21.80;99.90
16958;DHT22;8595;52.542;11.974;2022-08-19T08:33:43;21.70;99.90
16958;DHT22;8595;52.542;11.974;2022-08-19T08:36:11;21.60;99.90
16958;DHT22;8595;52.542;11.974;2022-08-19T08:38:41;21.50;99.90
16958;DHT22;8595;52.542;11.974;2022-08-19T08:41:16;21.40;99.90
16958;DHT22;8595;52.542;11.974;2022-08-19T08:43:48;21.50;99.90
16958;DHT22;8595;52.542;11.974;2022-08-19T08:46:21;21.50;99.90
16958;DHT22;8595;52.542;11.974;2022-08-19T08:48:53;21.40;99.90
16958;DHT22;8595;52.542;11.974;2022-08-19T08:51:23;21.60;99.90
16958;DHT22;8595;52.542;11.974;2022-08-19T08:53:54;21.60;99.90
16958;DHT22;8595;52.542;11.974;2022-08-19T08:56:22;21.70;99.90
16958;DHT22;8595;52.542;11.974;2022-08-19T08:58:54;21.70;99.90
16958;DHT22;8595;52.542;11.974;2022-08-19T09:01:22;21.80;99.90
16958;DHT22;8595;52.542;11.974;2022-08-19T09:03:49;21.70;99.90
16958;DHT22;8595;52.542;11.974;2022-08-19T09:06:23;21.60;99.90
16958;DHT22;8595;52.542;11.974;2022-08-19T09:09:00;21.40;99.90
16958;DHT22;8595;52.542;11.974;2022-08-19T09:11:43;21.40;99.90
16958;DHT22;8595;52.542;11.974;2022-08-19T09:14:23;21.50;99.90
16958;DHT22;8595;52.542;11.974;2022-08-19T09:16:53;21.50;99.90
16958;DHT22;8595;52.542;11.974;2022-08-19T09:19:20;21.30;99.90
16958;DHT22;8595;52.542;11.974;2022-08-19T09:21:46;21.20;99.90
16958;DHT22;8595;52.542;11.974;2022-08-19T09:24:15;21.20;99.90
16958;DHT22;8595;52.542;11.974;2022-08-19T09:26:41;21.20;99.90
16958;DHT22;8595;52.542;11.974;2022-08-19T09:29:09;21.30;99.90
16958;DHT22;8595;52.542;11.974;2022-08-19T09:31:36;21.20;99.90
16958;DHT22;8595;52.542;11.974;2022-08-19T09:34:03;21.20;99.90
16958;DHT22;8595;52.542;11.974;2022-08-19T09:36:30;21.10;99.90
16958;DHT22;8595;52.542;11.974;2022-08-19T09:38:59;21.20;99.90
16958;DHT22;8595;52.542;11.974;2022-08-19T09:41:27;21.20;99.90
16958;DHT22;8595;52.542;11.974;2022-08-19T09:43:55;21.40;99.90
16958;DHT22;8595;52.542;11.974;2022-08-19T09:46:24;21.50;99.90
16958;DHT22;8595;52.542;11.974;2022-08-19T09:48:51;21.60;99.90
16958;DHT22;8595;52.542;11.974;2022-08-19T09:51:20;21.50;99.90
16958;DHT22;8595;52.542;11.974;2022-08-19T09:53:48;21.50;99.90
16958;DHT22;8595;52.542;11.974;2022-08-19T09:56:17;21.60;99.90
16958;DHT22;8595;52.542;11.974;2022-08-19T09:58:46;21.40;99.90
16958;DHT22;8595;52.542;11.974;2022-08-19T10:01:17;21.40;99.90
16958;DHT22;8595;52.542;11.974;2022-08-19T10:03:47;21.30;99.90
16958;DHT22;8595;52.542;11.974;2022-08-19T10:06:14;21.40;99.90
16958;DHT22;8595;52.542;11.974;2022-08-19T10:08:42;21.40;99.90
16958;DHT22;8595;52.542;11.974;2022-08-19T10:11:08;21.50;99.90
16958;DHT22;8595;52.542;11.974;2022-08-19T10:13:36;21.50;99.90
16958;DHT22;8595;52.542;11.974;2022-08-19T10:16:07;21.50;99.90
16958;DHT22;8595;52.542;11.974;2022-08-19T10:18:35;21.60;99.90
16958;DHT22;8595;52.542;11.974;2022-08-19T10:21:05;21.50;99.90
16958;DHT22;8595;52.542;11.974;2022-08-19T10:23:34;21.60;99.90
16958;DHT22;8595;52.542;11.974;2022-08-19T10:26:01;21.60;99.90
16958;DHT22;8595;52.542;11.974;2022-08-19T10:28:28;21.50;99.90
16958;DHT22;8595;52.542;11.974;2022-08-19T10:30:55;21.60;99.90
16958;DHT22;8595;52.542;11.974;2022-08-19T10:33:23;21.60;99.90
16958;DHT22;8595;52.542;11.974;2022-08-19T10:35:59;21.80;99.90
16958;DHT22;8595;52.542;11.974;2022-08-19T10:38:25;22.00;99.90
16958;DHT22;8595;52.542;11.974;2022-08-19T10:40:54;21.90;99.90
16958;DHT22;8595;52.542;11.974;2022-08-19T10:43:20;22.00;99.90
16958;DHT22;8595;52.542;11.974;2022-08-19T10:45:51;22.20;99.90
16958;DHT22;8595;52.542;11.974;2022-08-19T10:48:19;22.20;99.90
16958;DHT22;8595;52.542;11.974;2022-08-19T10:50:47;22.20;99.90
16958;DHT22;8595;52.542;11.974;2022-08-19T10:53:31;22.30;99.90
16958;DHT22;8595;52.542;11.974;2022-08-19T10:55:57;22.50;99.90
16958;DHT22;8595;52.542;11.974;2022-08-19T10:58:42;22.60;99.90
16958;DHT22;8595;52.542;11.974;2022-08-19T11:01:10;22.70;99.90
16958;DHT22;8595;52.542;11.974;2022-08-19T11:03:36;22.70;99.90
16958;DHT22;8595;52.542;11.974;2022-08-19T11:06:07;22.70;99.90
16958;DHT22;8595;52.542;11.974;2022-08-19T11:08:36;22.90;99.90
16958;DHT22;8595;52.542;11.974;2022-08-19T11:11:05;22.90;99.90
16958;DHT22;8595;52.542;11.974;2022-08-19T11:13:33;23.20;99.90
16958;DHT22;8595;52.542;11.974;2022-08-19T11:16:03;23.40;99.90
16958;DHT22;8595;52.542;11.974;2022-08-19T11:18:30;23.70;99.90
16958;DHT22;8595;52.542;11.974;2022-08-19T11:21:07;23.90;99.90
16958;DHT22;8595;52.542;11.974;2022-08-19T11:23:34;23.90;99.90
16958;DHT22;8595;52.542;11.974;2022-08-19T11:26:00;23.90;99.90
16958;DHT22;8595;52.542;11.974;2022-08-19T11:28:28;23.80;99.90
16958;DHT22;8595;52.542;11.974;2022-08-19T11:30:54;23.70;99.90
16958;DHT22;8595;52.542;11.974;2022-08-19T11:33:21;23.80;99.90
16958;DHT22;8595;52.542;11.974;2022-08-19T11:35:48;23.90;99.90
16958;DHT22;8595;52.542;11.974;2022-08-19T11:38:16;23.90;99.90
16958;DHT22;8595;52.542;11.974;2022-08-19T11:40:43;23.90;99.90
16958;DHT22;8595;52.542;11.974;2022-08-19T11:43:10;23.80;99.90
16958;DHT22;8595;52.542;11.974;2022-08-19T11:45:37;23.80;99.90
16958;DHT22;8595;52.542;11.974;2022-08-19T11:48:04;23.90;99.90
16958;DHT22;8595;52.542;11.974;2022-08-19T11:50:30;23.90;99.90
16958;DHT22;8595;52.542;11.974;2022-08-19T11:52:57;23.70;99.90
16958;DHT22;8595;52.542;11.974;2022-08-19T11:55:25;23.80;99.90
16958;DHT22;8595;52.542;11.974;2022-08-19T11:57:52;23.90;99.90
16958;DHT22;8595;52.542;11.974;2022-08-19T12:00:18;24.00;99.90
16958;DHT22;8595;52.542;11.974;2022-08-19T12:02:45;24.00;99.90
16958;DHT22;8595;52.542;11.974;2022-08-19T12:05:12;23.90;99.90
16958;DHT22;8595;52.542;11.974;2022-08-19T12:07:39;23.80;99.90
16958;DHT22;8595;52.542;11.974;2022-08-19T12:10:07;23.80;99.90
16958;DHT22;8595;52.542;11.974;2022-08-19T12:12:35;23.90;99.90
16958;DHT22;8595;52.542;11.974;2022-08-19T12:15:03;24.10;99.90
16958;DHT22;8595;52.542;11.974;2022-08-19T12:17:30;24.30;99.90
16958;DHT22;8595;52.542;11.974;2022-08-19T12:19:57;24.40;99.90
16958;DHT22;8595;52.542;11.974;2022-08-19T12:22:23;24.50;99.90
16958;DHT22;8595;52.542;11.974;2022-08-19T12:24:50;24.70;99.90
16958;DHT22;8595;52.542;11.974;2022-08-19T12:27:18;24.80;99.90
16958;DHT22;8595;52.542;11.974;2022-08-19T12:29:46;24.60;99.90
16958;DHT22;8595;52.542;11.974;2022-08-19T12:32:14;24.70;99.90
16958;DHT22;8595;52.542;11.974;2022-08-19T12:34:42;24.70;99.90
16958;DHT22;8595;52.542;11.974;2022-08-19T12:37:10;24.60;99.90
16958;DHT22;8595;52.542;11.974;2022-08-19T12:39:39;24.40;99.90
16958;DHT22;8595;52.542;11.974;2022-08-19T12:42:07;24.20;99.90
16958;DHT22;8595;52.542;11.974;2022-08-19T12:44:34;23.90;99.90
16958;DHT22;8595;52.542;11.974;2022-08-19T12:47:02;24.00;99.90
16958;DHT22;8595;52.542;11.974;2022-08-19T12:49:29;23.90;99.90
16958;DHT22;8595;52.542;11.974;2022-08-19T12:51:57;23.90;99.90
16958;DHT22;8595;52.542;11.974;2022-08-19T12:54:24;24.00;99.90
16958;DHT22;8595;52.542;11.974;2022-08-19T12:56:50;23.90;99.90
16958;DHT22;8595;52.542;11.974;2022-08-19T12:59:17;23.90;99.90
16958;DHT22;8595;52.542;11.974;2022-08-19T13:01:44;23.70;99.90
16958;DHT22;8595;52.542;11.974;2022-08-19T13:04:12;23.70;99.90
16958;DHT22;8595;52.542;11.974;2022-08-19T13:06:39;23.60;99.90
16958;DHT22;8595;52.542;11.974;2022-08-19T13:09:06;23.60;99.90
16958;DHT22;8595;52.542;11.974;2022-08-19T13:11:32;23.50;99.90
16958;DHT22;8595;52.542;11.974;2022-08-19T13:14:00;23.40;99.90
16958;DHT22;8595;52.542;11.974;2022-08-19T13:16:28;23.40;99.90
16958;DHT22;8595;52.542;11.974;2022-08-19T13:18:56;23.20;99.90
16958;DHT22;8595;52.542;11.974;2022-08-19T13:21:26;23.20;99.90
16958;DHT22;8595;52.542;11.974;2022-08-19T13:23:55;23.10;99.90
16958;DHT22;8595;52.542;11.974;2022-08-19T13:26:22;23.20;99.90
16958;DHT22;8595;52.542;11.974;2022-08-19T13:28:49;23.40;99.90
16958;DHT22;8595;52.542;11.974;2022-08-19T13:31:36;23.40;99.90
16958;DHT22;8595;52.542;11.974;2022-08-19T13:34:30;23.50;99.90
16958;DHT22;8595;52.542;11.974;2022-08-19T13:36:59;23.60;99.90
16958;DHT22;8595;52.542;11.974;2022-08-19T13:39:28;23.60;99.90
16958;DHT22;8595;52.542;11.974;2022-08-19T13:41:55;23.60;99.90
16958;DHT22;8595;52.542;11.974;2022-08-19T13:44:21;23.70;99.90
16958;DHT22;8595;52.542;11.974;2022-08-19T13:46:48;23.90;99.90
16958;DHT22;8595;52.542;11.974;2022-08-19T13:49:19;24.10;99.90
16958;DHT22;8595;52.542;11.974;2022-08-19T13:51:46;24.10;99.90
16958;DHT22;8595;52.542;11.974;2022-08-19T13:54:14;24.00;99.90
16958;DHT22;8595;52.542;11.974;2022-08-19T13:56:42;24.10;99.90
16958;DHT22;8595;52.542;11.974;2022-08-19T13:59:09;24.00;99.90
16958;DHT22;8595;52.542;11.974;2022-08-19T14:01:36;23.90;99.90
16958;DHT22;8595;52.542;11.974;2022-08-19T14:04:04;23.80;99.90
16958;DHT22;8595;52.542;11.974;2022-08-19T14:06:31;23.70;99.90
16958;DHT22;8595;52.542;11.974;2022-08-19T14:08:58;23.70;99.90
16958;DHT22;8595;52.542;11.974;2022-08-19T14:11:26;23.70;99.90
16958;DHT22;8595;52.542;11.974;2022-08-19T14:13:53;23.70;99.90
16958;DHT22;8595;52.542;11.974;2022-08-19T14:16:20;23.80;99.90
16958;DHT22;8595;52.542;11.974;2022-08-19T14:18:47;23.90;99.90
16958;DHT22;8595;52.542;11.974;2022-08-19T14:21:16;23.90;99.90
16958;DHT22;8595;52.542;11.974;2022-08-19T14:23:43;23.80;99.90
16958;DHT22;8595;52.542;11.974;2022-08-19T14:26:13;23.80;99.90
16958;DHT22;8595;52.542;11.974;2022-08-19T14:28:41;23.70;99.90
16958;DHT22;8595;52.542;11.974;2022-08-19T14:31:09;23.80;99.90
16958;DHT22;8595;52.542;11.974;2022-08-19T14:33:36;23.90;99.90
16958;DHT22;8595;52.542;11.974;2022-08-19T14:36:03;24.00;99.90
16958;DHT22;8595;52.542;11.974;2022-08-19T14:38:30;24.00;99.90
16958;DHT22;8595;52.542;11.974;2022-08-19T14:41:06;23.90;99.90
16958;DHT22;8595;52.542;11.974;2022-08-19T14:43:33;23.60;99.90
16958;DHT22;8595;52.542;11.974;2022-08-19T14:46:01;23.50;99.90
16958;DHT22;8595;52.542;11.974;2022-08-19T14:48:28;23.50;99.90
16958;DHT22;8595;52.542;11.974;2022-08-19T14:50:55;23.30;99.90
16958;DHT22;8595;52.542;11.974;2022-08-19T14:53:21;23.30;99.90
16958;DHT22;8595;52.542;11.974;2022-08-19T14:55:48;23.20;99.90
16958;DHT22;8595;52.542;11.974;2022-08-19T14:58:15;23.00;99.90
16958;DHT22;8595;52.542;11.974;2022-08-19T15:00:41;22.90;99.90
16958;DHT22;8595;52.542;11.974;2022-08-19T15:03:12;22.80;99.90
16958;DHT22;8595;52.542;11.974;2022-08-19T15:05:39;22.90;99.90
16958;DHT22;8595;52.542;11.974;2022-08-19T15:08:06;22.90;99.90
16958;DHT22;8595;52.542;11.974;2022-08-19T15:10:33;22.90;99.90
16958;DHT22;8595;52.542;11.974;2022-08-19T15:12:59;23.00;99.90
16958;DHT22;8595;52.542;11.974;2022-08-19T15:15:26;22.90;99.90
16958;DHT22;8595;52.542;11.974;2022-08-19T15:17:53;22.90;99.90
16958;DHT22;8595;52.542;11.974;2022-08-19T15:20:22;22.90;99.90
16958;DHT22;8595;52.542;11.974;2022-08-19T15:22:49;23.00;99.90
16958;DHT22;8595;52.542;11.974;2022-08-19T15:25:18;23.10;99.90
16958;DHT22;8595;52.542;11.974;2022-08-19T15:27:45;23.10;99.90
16958;DHT22;8595;52.542;11.974;2022-08-19T15:30:19;23.00;99.90
16958;DHT22;8595;52.542;11.974;2022-08-19T15:32:46;23.20;99.90
16958;DHT22;8595;52.542;11.974;2022-08-19T15:35:13;23.10;99.90
16958;DHT22;8595;52.542;11.974;2022-08-19T15:37:41;23.20;99.90